createdAt,value
2023-01-26T00:00:26.369Z,94.09
2023-01-26T00:02:57.551Z,95.78
2023-01-26T00:05:25.057Z,96.63
2023-01-26T00:07:52.457Z,96.88
2023-01-26T00:10:19.971Z,96.34
2023-01-26T00:12:47.393Z,95.64
2023-01-26T00:15:14.856Z,95.02
2023-01-26T00:17:45.681Z,95.25
2023-01-26T00:20:13.839Z,94.82
2023-01-26T00:25:41.044Z,94.63
2023-01-26T00:28:08.474Z,95.18
2023-01-26T00:30:36.041Z,96.90
2023-01-26T00:33:04.903Z,96.73
2023-01-26T00:35:32.357Z,96.18
2023-01-26T00:37:59.802Z,96.14
2023-01-26T00:43:16.046Z,95.43
2023-01-26T00:45:43.504Z,95.06
2023-01-26T00:48:12.326Z,94.24
2023-01-26T00:50:39.753Z,94.00
2023-01-26T00:53:07.373Z,96.40
2023-01-26T00:55:34.811Z,96.64
2023-01-26T00:58:02.973Z,97.05
2023-01-26T01:00:31.976Z,97.08
2023-01-26T01:02:59.590Z,97.12
2023-01-26T01:05:30.362Z,98.21
2023-01-26T01:07:57.810Z,98.66
2023-01-26T01:10:26.965Z,98.42
2023-01-26T01:12:54.497Z,99.64
2023-01-26T01:15:24.465Z,99.81
2023-01-26T01:17:51.954Z,99.34
2023-01-26T01:20:19.489Z,99.12
2023-01-26T01:22:48.744Z,98.08
2023-01-26T01:25:16.499Z,97.31
2023-01-26T01:27:43.916Z,96.45
2023-01-26T01:30:13.195Z,96.12
2023-01-26T01:32:40.846Z,96.32
2023-01-26T01:35:09.074Z,96.98
2023-01-26T01:37:36.702Z,97.39
2023-01-26T01:40:06.544Z,97.88
2023-01-26T01:42:35.012Z,98.12
2023-01-26T01:45:41.177Z,98.80
2023-01-26T01:48:14.668Z,98.43
2023-01-26T01:50:42.691Z,98.70
2023-01-26T01:53:14.412Z,99.16
2023-01-26T01:58:46.751Z,98.94
2023-01-26T02:01:14.750Z,98.88
2023-01-26T02:03:43.071Z,98.53
2023-01-26T02:06:13.191Z,98.20
2023-01-26T02:08:44.751Z,97.05
2023-01-26T02:11:15.081Z,96.25
2023-01-26T02:13:46.039Z,95.50
2023-01-26T02:16:13.538Z,94.56
2023-01-26T02:18:42.120Z,94.56
2023-01-26T02:21:11.492Z,94.38
2023-01-26T02:23:50.780Z,94.46
2023-01-26T02:29:20.945Z,94.33
2023-01-26T02:31:49.314Z,94.93
2023-01-26T02:34:16.880Z,94.79
2023-01-26T02:36:46.125Z,94.88
2023-01-26T02:39:22.981Z,93.94
2023-01-26T02:42:10.132Z,93.60
2023-01-26T02:44:37.849Z,93.48
2023-01-26T02:47:12.214Z,93.05
2023-01-26T02:49:50.634Z,93.05
2023-01-26T02:52:20.935Z,93.13
2023-01-26T02:55:11.889Z,94.02
2023-01-26T02:57:40.927Z,94.00
2023-01-26T03:00:10.860Z,94.03
2023-01-26T03:02:38.632Z,93.94
2023-01-26T03:05:06.361Z,93.25
2023-01-26T03:07:33.910Z,93.88
2023-01-26T03:10:01.358Z,94.61
2023-01-26T03:12:29.954Z,94.04
2023-01-26T03:15:12.773Z,93.97
2023-01-26T03:17:40.246Z,93.60
2023-01-26T03:20:27.238Z,94.36
2023-01-26T03:23:12.306Z,94.04
2023-01-26T03:25:57.631Z,94.08
2023-01-26T03:28:27.454Z,92.93
2023-01-26T03:30:57.741Z,92.76
2023-01-26T03:33:25.381Z,93.03
2023-01-26T03:35:55.584Z,93.70
2023-01-26T03:38:24.505Z,94.40
2023-01-26T03:41:16.098Z,94.78
2023-01-26T03:44:01.277Z,94.90
2023-01-26T03:46:47.718Z,95.18
2023-01-26T03:49:33.578Z,95.66
2023-01-26T03:52:19.085Z,96.39
2023-01-26T03:55:05.113Z,96.49
2023-01-26T03:57:32.529Z,97.60
2023-01-26T03:59:59.999Z,98.01
2023-01-26T04:02:47.330Z,97.82
2023-01-26T04:05:32.565Z,98.63
2023-01-26T04:08:20.832Z,97.96
2023-01-26T04:10:48.753Z,97.27
2023-01-26T04:13:33.998Z,96.45
2023-01-26T04:16:25.700Z,96.22
2023-01-26T04:19:12.314Z,96.35
2023-01-26T04:21:40.699Z,96.34
2023-01-26T04:24:17.662Z,96.18
2023-01-26T04:26:46.545Z,96.55
2023-01-26T04:29:24.323Z,96.12
2023-01-26T04:31:52.145Z,96.13
2023-01-26T04:34:23.016Z,95.94
2023-01-26T04:36:50.755Z,96.00
2023-01-26T04:42:17.797Z,97.40
2023-01-26T04:44:45.352Z,98.13
2023-01-26T04:50:03.092Z,97.80
2023-01-26T04:52:30.605Z,97.71
2023-01-26T04:54:58.140Z,97.95
2023-01-26T04:57:25.832Z,98.12
2023-01-26T04:59:53.540Z,98.64
2023-01-26T05:02:21.634Z,97.86
2023-01-26T05:07:50.289Z,98.02
2023-01-26T05:10:18.297Z,98.29
2023-01-26T05:13:16.656Z,98.26
2023-01-26T05:15:55.758Z,97.97
2023-01-26T05:21:28.137Z,97.49
2023-01-26T05:23:57.682Z,97.20
2023-01-26T05:26:31.970Z,96.56
2023-01-26T05:29:04.040Z,97.09
2023-01-26T05:34:27.847Z,97.31
2023-01-26T05:36:55.589Z,96.89
2023-01-26T05:39:25.026Z,96.22
2023-01-26T05:41:52.587Z,96.81
2023-01-26T05:44:20.020Z,96.35
2023-01-26T05:46:51.785Z,96.60
2023-01-26T05:49:19.332Z,95.79
2023-01-26T05:51:47.030Z,95.42
2023-01-26T05:54:15.369Z,96.91
2023-01-26T05:56:44.172Z,96.33
2023-01-26T05:59:11.771Z,96.32
2023-01-26T06:01:39.698Z,96.36
2023-01-26T06:04:08.977Z,96.34
2023-01-26T06:06:46.014Z,96.21
2023-01-26T06:09:22.808Z,95.75
2023-01-26T06:12:19.273Z,94.59
2023-01-26T06:14:52.476Z,94.17
2023-01-26T06:17:44.611Z,94.13
2023-01-26T06:20:15.691Z,94.42
2023-01-26T06:22:51.185Z,94.40
2023-01-26T06:25:18.637Z,94.51
2023-01-26T06:27:47.433Z,94.37
2023-01-26T06:30:23.240Z,94.74
2023-01-26T06:33:14.688Z,95.26
2023-01-26T06:35:42.292Z,95.91
2023-01-26T06:38:12.435Z,95.26
2023-01-26T06:40:39.967Z,94.91
2023-01-26T06:46:11.086Z,94.52
2023-01-26T06:48:38.960Z,95.35
2023-01-26T06:54:20.727Z,95.23
2023-01-26T06:57:23.598Z,95.23
2023-01-26T07:00:06.111Z,94.94
2023-01-26T07:02:54.504Z,95.25
2023-01-26T07:05:21.950Z,95.19
2023-01-26T07:07:49.414Z,94.42
2023-01-26T07:10:16.942Z,94.35
2023-01-26T07:12:46.091Z,94.92
2023-01-26T07:18:13.035Z,94.47
2023-01-26T07:20:40.474Z,94.77
2023-01-26T07:23:07.961Z,94.46
2023-01-26T07:25:35.432Z,94.58
2023-01-26T07:28:02.865Z,94.81
2023-01-26T07:33:21.106Z,95.07
2023-01-26T07:35:48.535Z,94.92
2023-01-26T07:38:15.945Z,94.77
2023-01-26T07:40:43.365Z,94.85
2023-01-26T07:43:13.116Z,95.22
2023-01-26T07:45:48.126Z,94.87
2023-01-26T07:48:15.699Z,94.52
2023-01-26T07:50:45.116Z,95.10
2023-01-26T07:53:15.122Z,95.31
2023-01-26T07:55:43.618Z,95.97
2023-01-26T07:58:11.391Z,96.26
2023-01-26T08:00:39.815Z,95.91
2023-01-26T08:03:07.695Z,95.61
2023-01-26T08:05:36.922Z,96.16
2023-01-26T08:08:06.570Z,95.33
2023-01-26T08:10:34.016Z,95.57
2023-01-26T08:13:01.783Z,95.46
2023-01-26T08:15:29.370Z,95.23
2023-01-26T08:17:57.070Z,95.67
2023-01-26T08:20:24.660Z,95.58
2023-01-26T08:22:52.240Z,95.16
2023-01-26T08:25:21.001Z,95.44
2023-01-26T08:27:48.543Z,95.27
2023-01-26T08:33:18.724Z,96.32
2023-01-26T08:35:46.173Z,95.16
2023-01-26T08:38:13.588Z,95.86
2023-01-26T08:41:08.092Z,95.32
2023-01-26T08:43:36.078Z,94.88
2023-01-26T08:49:05.723Z,93.56
2023-01-26T08:51:33.159Z,94.50
2023-01-26T08:54:00.652Z,94.39
2023-01-26T08:56:29.485Z,94.19
2023-01-26T08:58:56.931Z,94.77
2023-01-26T09:01:24.704Z,94.45
2023-01-26T09:03:52.928Z,94.48
2023-01-26T09:06:20.542Z,93.90
2023-01-26T09:08:48.037Z,94.24
2023-01-26T09:11:16.150Z,94.16
2023-01-26T09:13:44.990Z,95.02
2023-01-26T09:16:16.426Z,93.81
2023-01-26T09:18:43.861Z,93.55
2023-01-26T09:21:12.339Z,94.14
2023-01-26T09:23:39.808Z,94.33
2023-01-26T09:26:07.272Z,92.71
2023-01-26T09:28:34.771Z,94.06
2023-01-26T09:31:05.970Z,94.73
2023-01-26T09:33:33.886Z,95.16
2023-01-26T09:36:04.685Z,94.80
2023-01-26T09:38:32.180Z,95.65
2023-01-26T09:41:05.500Z,95.64
2023-01-26T09:43:38.933Z,95.87
2023-01-26T09:46:23.218Z,95.60
2023-01-26T09:49:00.438Z,95.81
2023-01-26T09:51:33.539Z,95.01
2023-01-26T09:54:04.680Z,94.73
2023-01-26T09:56:33.934Z,93.62
2023-01-26T09:59:05.173Z,94.00
2023-01-26T10:04:29.751Z,94.07
2023-01-26T10:06:57.790Z,93.27
2023-01-26T10:09:47.236Z,93.64
2023-01-26T10:12:17.865Z,92.52
2023-01-26T10:17:44.812Z,92.68
2023-01-26T10:23:16.525Z,92.90
2023-01-26T10:25:46.770Z,93.12
2023-01-26T10:28:15.393Z,93.67
2023-01-26T10:30:44.896Z,94.85
2023-01-26T10:36:01.132Z,94.49
2023-01-26T10:38:45.422Z,95.22
2023-01-26T10:41:25.786Z,94.56
2023-01-26T10:43:55.159Z,93.57
2023-01-26T10:46:31.594Z,93.66
2023-01-26T10:49:24.198Z,93.38
2023-01-26T10:52:07.071Z,93.14
2023-01-26T10:54:38.095Z,92.93
2023-01-26T11:00:24.609Z,94.59
2023-01-26T11:02:53.643Z,94.70
2023-01-26T11:08:33.349Z,95.21
2023-01-26T11:11:03.412Z,95.75
2023-01-26T11:16:29.908Z,95.51
2023-01-26T11:19:00.282Z,95.66
2023-01-26T11:21:31.924Z,95.49
2023-01-26T11:27:26.349Z,95.40
2023-01-26T11:32:56.500Z,93.06
2023-01-26T11:35:32.806Z,92.73
2023-01-26T11:38:10.755Z,91.96
2023-01-26T11:40:42.311Z,92.28
2023-01-26T11:43:23.307Z,93.30
2023-01-26T11:49:01.232Z,94.25
2023-01-26T11:51:41.526Z,94.54
2023-01-26T11:57:21.084Z,96.46
2023-01-26T12:02:59.010Z,97.98
2023-01-26T12:05:29.308Z,97.36
2023-01-26T12:07:58.113Z,96.59
2023-01-26T12:10:30.116Z,97.34
2023-01-26T12:13:02.444Z,96.15
2023-01-26T12:15:34.288Z,96.53
2023-01-26T12:18:07.084Z,97.46
2023-01-26T12:20:39.937Z,97.60
2023-01-26T12:23:13.180Z,98.30
2023-01-26T12:25:50.166Z,98.32
2023-01-26T12:28:21.925Z,98.59
2023-01-26T12:30:58.092Z,98.05
2023-01-26T12:33:26.886Z,98.13
2023-01-26T12:36:03.720Z,98.63
2023-01-26T12:38:41.843Z,98.80
2023-01-26T12:44:20.012Z,97.07
2023-01-26T12:46:53.991Z,97.42
2023-01-26T12:49:25.395Z,96.75
2023-01-26T12:51:56.365Z,96.88
2023-01-26T12:57:25.220Z,96.69
2023-01-26T12:59:53.129Z,96.44
2023-01-26T13:02:28.394Z,96.80
2023-01-26T13:04:57.989Z,96.70
2023-01-26T13:07:31.706Z,96.55
2023-01-26T13:10:23.412Z,96.29
2023-01-26T13:12:52.618Z,95.48
2023-01-26T13:15:21.193Z,94.70
2023-01-26T13:17:54.084Z,95.10
2023-01-26T13:23:37.588Z,94.54
2023-01-26T13:29:33.162Z,94.80
2023-01-26T13:35:05.591Z,94.02
2023-01-26T13:37:40.243Z,93.19
2023-01-26T13:40:31.592Z,93.34
2023-01-26T13:43:04.832Z,93.66
2023-01-26T13:48:34.959Z,92.91
2023-01-26T13:51:03.195Z,92.65
2023-01-26T13:53:37.215Z,93.08
2023-01-26T13:56:07.420Z,93.58
2023-01-26T13:58:35.134Z,93.81
2023-01-26T14:01:04.225Z,94.85
2023-01-26T14:03:33.606Z,94.52
2023-01-26T14:06:04.380Z,95.04
2023-01-26T14:08:32.575Z,95.13
2023-01-26T14:11:00.926Z,95.24
2023-01-26T14:13:33.202Z,94.09
2023-01-26T14:19:12.025Z,94.70
2023-01-26T14:21:47.333Z,96.15
2023-01-26T14:24:14.925Z,95.72
2023-01-26T14:26:42.768Z,95.41
2023-01-26T14:32:15.621Z,95.92
2023-01-26T14:34:52.491Z,95.15
2023-01-26T14:37:19.935Z,96.10
2023-01-26T14:39:48.095Z,95.03
2023-01-26T14:42:16.434Z,95.96
2023-01-26T14:44:44.075Z,96.29
2023-01-26T14:47:17.900Z,96.14
2023-01-26T14:49:47.665Z,96.84
2023-01-26T14:52:24.828Z,96.86
2023-01-26T14:54:54.202Z,96.80
2023-01-26T14:57:23.572Z,97.79
2023-01-26T14:59:53.601Z,96.54
2023-01-26T15:02:22.969Z,96.56
2023-01-26T15:04:53.300Z,97.63
2023-01-26T15:07:39.025Z,97.35
2023-01-26T15:10:25.720Z,97.21
2023-01-26T15:12:58.644Z,98.08
2023-01-26T15:15:29.161Z,98.67
2023-01-26T15:18:01.766Z,98.43
2023-01-26T15:23:45.180Z,99.44
2023-01-26T15:26:15.713Z,99.48
2023-01-26T15:28:43.259Z,99.89
2023-01-26T15:31:20.572Z,98.78
2023-01-26T15:33:50.602Z,99.53
2023-01-26T15:36:30.873Z,99.63
2023-01-26T15:39:02.285Z,98.80
2023-01-26T15:41:30.348Z,98.60
2023-01-26T15:43:58.193Z,98.08
2023-01-26T15:46:25.774Z,97.07
2023-01-26T15:48:53.203Z,97.36
2023-01-26T15:51:20.866Z,97.81
2023-01-26T15:53:48.362Z,97.52
2023-01-26T15:56:17.209Z,97.23
2023-01-26T15:58:44.629Z,96.81
2023-01-26T16:01:16.890Z,96.33
2023-01-26T16:03:45.066Z,96.20
2023-01-26T16:06:23.447Z,96.76
2023-01-26T16:08:51.145Z,97.59
2023-01-26T16:14:19.801Z,97.42
2023-01-26T16:16:47.333Z,96.80
2023-01-26T16:19:46.688Z,97.68
2023-01-26T16:22:14.301Z,98.03
2023-01-26T16:24:41.900Z,97.21
2023-01-26T16:27:10.249Z,97.44
2023-01-26T16:32:30.401Z,97.24
2023-01-26T16:34:57.864Z,96.90
2023-01-26T16:40:15.351Z,97.39
2023-01-26T16:42:44.709Z,96.71
2023-01-26T16:45:16.346Z,97.66
2023-01-26T16:47:45.173Z,97.19
2023-01-26T16:50:12.831Z,96.71
2023-01-26T16:52:41.549Z,97.24
2023-01-26T16:55:12.892Z,97.06
2023-01-26T16:57:42.093Z,97.57
2023-01-26T17:00:14.451Z,98.87
2023-01-26T17:02:42.313Z,98.96
2023-01-26T17:05:14.571Z,98.50
2023-01-26T17:07:42.102Z,98.82
2023-01-26T17:10:28.381Z,98.02
2023-01-26T17:12:55.821Z,98.66
2023-01-26T17:15:24.433Z,98.40
2023-01-26T17:17:52.051Z,97.91
2023-01-26T17:20:20.868Z,98.09
2023-01-26T17:22:48.797Z,98.65
2023-01-26T17:25:17.490Z,98.63
2023-01-26T17:27:46.032Z,98.43
2023-01-26T17:30:14.123Z,97.89
2023-01-26T17:32:42.690Z,97.79
2023-01-26T17:35:10.749Z,98.44
2023-01-26T17:37:40.084Z,97.96
2023-01-26T17:40:09.266Z,97.59
2023-01-26T17:42:36.741Z,97.60
2023-01-26T17:47:59.204Z,97.41
2023-01-26T17:50:26.762Z,97.12
2023-01-26T17:52:57.449Z,96.55
2023-01-26T17:55:26.422Z,97.21
2023-01-26T17:57:54.344Z,97.10
2023-01-26T18:00:22.159Z,96.75
2023-01-26T18:02:49.625Z,97.14
2023-01-26T18:05:17.241Z,96.85
2023-01-26T18:07:44.671Z,96.77
2023-01-26T18:10:12.797Z,96.53
2023-01-26T18:12:41.547Z,96.79
2023-01-26T18:15:09.496Z,96.81
2023-01-26T18:17:37.529Z,97.21
2023-01-26T18:20:05.463Z,97.09
2023-01-26T18:25:21.275Z,97.01
2023-01-26T18:27:50.032Z,96.73
2023-01-26T18:30:18.478Z,97.29
2023-01-26T18:32:45.957Z,97.25
2023-01-26T18:35:13.573Z,97.05
2023-01-26T18:37:41.170Z,96.78
2023-01-26T18:40:10.153Z,97.53
2023-01-26T18:42:37.610Z,97.29
2023-01-26T18:45:07.715Z,97.01
2023-01-26T18:47:35.182Z,97.26
2023-01-26T18:50:02.850Z,97.06
2023-01-26T18:52:31.128Z,96.46
2023-01-26T18:54:58.600Z,96.18
2023-01-26T18:57:26.091Z,96.18
2023-01-26T18:59:53.618Z,96.53
2023-01-26T19:02:22.417Z,95.65
2023-01-26T19:04:53.441Z,96.38
2023-01-26T19:07:21.172Z,96.71
2023-01-26T19:09:48.573Z,96.50
2023-01-26T19:12:16.003Z,96.09
2023-01-26T19:14:45.020Z,96.55
2023-01-26T19:17:12.670Z,96.68
2023-01-26T19:19:41.875Z,96.18
2023-01-26T19:22:09.519Z,95.72
2023-01-26T19:27:40.234Z,95.65
2023-01-26T19:30:08.904Z,96.16
2023-01-26T19:32:36.359Z,96.10
2023-01-26T19:35:05.886Z,96.31
2023-01-26T19:37:33.310Z,96.94
2023-01-26T19:40:00.794Z,97.34
2023-01-26T19:42:28.217Z,97.18
2023-01-26T19:44:55.621Z,96.55
2023-01-26T19:47:23.081Z,96.91
2023-01-26T19:49:50.496Z,99.01
2023-01-26T19:52:19.280Z,100.00
2023-01-26T19:54:46.711Z,100.00
2023-01-26T19:57:14.178Z,100.00
2023-01-26T19:59:41.586Z,99.78
2023-01-26T20:02:10.119Z,100.00
2023-01-26T20:04:37.754Z,99.66
2023-01-26T20:07:06.557Z,99.31
2023-01-26T20:12:42.906Z,98.62
2023-01-26T20:18:12.761Z,99.60
2023-01-26T20:20:40.214Z,98.90
2023-01-26T20:23:07.795Z,98.85
2023-01-26T20:25:36.596Z,98.81
2023-01-26T20:28:06.225Z,98.81
2023-01-26T20:30:34.207Z,99.09
2023-01-26T20:33:02.043Z,99.88
2023-01-26T20:35:29.603Z,99.57
2023-01-26T20:37:57.178Z,99.36
2023-01-26T20:40:24.744Z,100.00
2023-01-26T20:42:52.209Z,99.59
2023-01-26T20:45:21.038Z,100.00
2023-01-26T20:47:48.433Z,99.52
2023-01-26T20:50:17.329Z,99.25
2023-01-26T20:52:45.007Z,99.67
2023-01-26T20:55:13.072Z,99.42
2023-01-26T20:57:40.474Z,99.04
2023-01-26T21:00:10.221Z,99.74
2023-01-26T21:05:42.034Z,99.45
2023-01-26T21:08:09.426Z,99.71
2023-01-26T21:10:36.853Z,99.42
2023-01-26T21:13:04.438Z,99.29
2023-01-26T21:15:55.865Z,99.20
2023-01-26T21:18:23.305Z,99.40
2023-01-26T21:20:58.926Z,99.31
2023-01-26T21:23:26.456Z,99.33
2023-01-26T21:25:58.553Z,98.96
2023-01-26T21:28:26.431Z,98.28
2023-01-26T21:31:00.464Z,98.63
2023-01-26T21:33:28.238Z,98.75
2023-01-26T21:39:14.789Z,98.24
2023-01-26T21:41:57.371Z,98.02
2023-01-26T21:44:26.060Z,98.13
2023-01-26T21:46:55.168Z,98.03
2023-01-26T21:49:23.392Z,97.84
2023-01-26T21:52:08.909Z,98.59
2023-01-26T21:54:38.135Z,98.53
2023-01-26T21:57:27.540Z,99.00
2023-01-26T22:02:49.359Z,99.14
2023-01-26T22:05:16.860Z,98.82
2023-01-26T22:07:44.306Z,99.19
2023-01-26T22:10:13.732Z,99.78
2023-01-26T22:12:41.266Z,100.00
2023-01-26T22:15:10.156Z,100.00
2023-01-26T22:17:37.613Z,100.00
2023-01-26T22:20:05.634Z,100.00
2023-01-26T22:22:33.065Z,100.00
2023-01-26T22:25:00.609Z,100.00
2023-01-26T22:27:29.433Z,100.00
2023-01-26T22:29:56.865Z,100.00
2023-01-26T22:32:24.428Z,100.00
2023-01-26T22:34:52.224Z,100.00
2023-01-26T22:37:19.653Z,100.00
2023-01-26T22:39:48.906Z,100.00
2023-01-26T22:42:16.321Z,100.00
2023-01-26T22:44:45.096Z,100.00
2023-01-26T22:47:12.536Z,100.00
2023-01-26T22:49:39.973Z,100.00
2023-01-26T22:52:07.398Z,100.00
2023-01-26T22:54:35.516Z,100.00
2023-01-26T22:57:03.633Z,100.00
2023-01-26T22:59:31.160Z,100.00
2023-01-26T23:01:59.938Z,100.00
2023-01-26T23:04:27.806Z,100.00
2023-01-26T23:06:55.293Z,100.00
2023-01-26T23:09:22.724Z,100.00
2023-01-26T23:12:01.349Z,100.00
2023-01-26T23:14:54.125Z,100.00
2023-01-26T23:17:22.938Z,100.00
2023-01-26T23:22:38.718Z,100.00
2023-01-26T23:25:24.117Z,100.00
2023-01-26T23:27:51.557Z,100.00
2023-01-26T23:30:19.698Z,100.00
2023-01-26T23:32:48.473Z,100.00
2023-01-26T23:35:15.982Z,100.00
2023-01-26T23:40:46.327Z,100.00
2023-01-26T23:43:16.998Z,100.00
2023-01-26T23:45:46.838Z,100.00
2023-01-26T23:48:16.297Z,100.00
2023-01-26T23:50:43.982Z,100.00
2023-01-26T23:53:11.465Z,100.00
2023-01-26T23:55:40.945Z,100.00
2023-01-26T23:58:08.426Z,100.00
